Time;durP1;ratioP1;P1;durP2;ratioP2;P2;SDS_P1;SDS_P2;PMS_P1;PMS_P2;Temp;Humidity;BMP_temperature;BMP_pressure;BME280_temperature;BME280_humidity;BME280_pressure;Samples;Min_cycle;Max_cycle;Signal;HPM_P1;HPM_P2
2023/03/30 00:00:54;;;;;;;9.20;2.80;;;10.10;99.90;;;;;;5019454;28;20369;-92
2023/03/30 00:03:21;;;;;;;14.67;2.93;;;10.10;99.90;;;;;;5018273;28;20030;-91
2023/03/30 00:05:50;;;;;;;14.33;2.60;;;10.10;99.90;;;;;;5019107;28;20037;-91
2023/03/30 00:08:17;;;;;;;9.23;2.30;;;10.10;99.90;;;;;;5015209;28;20726;-91
2023/03/30 00:10:46;;;;;;;15.97;2.63;;;10.20;99.90;;;;;;5019745;28;20030;-91
2023/03/30 00:13:13;;;;;;;17.30;2.87;;;10.20;99.90;;;;;;5018697;28;20037;-91
2023/03/30 00:15:39;;;;;;;9.07;2.13;;;10.20;99.90;;;;;;5018548;28;20058;-92
2023/03/30 00:18:04;;;;;;;14.90;2.70;;;10.20;99.90;;;;;;5019703;28;20488;-90
2023/03/30 00:20:33;;;;;;;12.97;2.37;;;10.20;99.90;;;;;;5019857;28;20029;-90
2023/03/30 00:22:59;;;;;;;16.03;2.70;;;10.20;99.90;;;;;;5017900;28;20030;-91
2023/03/30 00:25:24;;;;;;;13.57;3.10;;;10.20;99.90;;;;;;5017918;28;20032;-91
2023/03/30 00:27:50;;;;;;;7.87;2.63;;;10.20;99.90;;;;;;5018472;28;20034;-91
2023/03/30 00:30:17;;;;;;;11.73;1.93;;;10.10;99.90;;;;;;5020395;28;20037;-91
2023/03/30 00:32:45;;;;;;;11.67;2.30;;;10.10;99.90;;;;;;5019611;28;20033;-91
2023/03/30 00:35:13;;;;;;;12.47;2.43;;;10.10;99.90;;;;;;5019475;28;20049;-91
2023/03/30 00:37:39;;;;;;;12.03;2.40;;;10.10;99.90;;;;;;5019116;28;20579;-91
2023/03/30 00:40:15;;;;;;;14.15;2.13;;;10.10;99.90;;;;;;5019692;28;20128;-91
2023/03/30 00:42:40;;;;;;;15.43;3.17;;;10.00;99.90;;;;;;5017615;28;20531;-91
2023/03/30 00:45:13;;;;;;;15.03;2.70;;;9.90;99.90;;;;;;5017355;28;20052;-91
2023/03/30 00:47:43;;;;;;;11.93;2.90;;;9.80;99.90;;;;;;5018347;28;20484;-91
2023/03/30 00:50:11;;;;;;;11.83;2.60;;;9.70;99.90;;;;;;5017912;28;20036;-91
2023/03/30 00:52:38;;;;;;;11.97;2.40;;;9.60;99.90;;;;;;5017414;28;20037;-92
2023/03/30 00:55:06;;;;;;;16.37;3.00;;;9.60;99.90;;;;;;5019612;28;20091;-91
2023/03/30 00:57:36;;;;;;;9.07;2.20;;;9.50;99.90;;;;;;5020039;28;20122;-91
2023/03/30 01:00:05;;;;;;;12.20;2.57;;;9.40;99.90;;;;;;5018658;28;20519;-91
2023/03/30 01:02:34;;;;;;;12.97;2.53;;;9.30;99.90;;;;;;5018662;28;20026;-91
2023/03/30 01:05:00;;;;;;;8.20;2.03;;;9.30;99.90;;;;;;5018984;28;20034;-92
2023/03/30 01:07:26;;;;;;;9.83;2.47;;;9.20;99.90;;;;;;5020071;28;20030;-91
2023/03/30 01:09:52;;;;;;;12.63;2.63;;;9.20;99.90;;;;;;5018210;28;20029;-91
2023/03/30 01:12:19;;;;;;;13.33;2.70;;;9.10;99.90;;;;;;5019119;28;20525;-91
2023/03/30 01:14:45;;;;;;;10.27;2.33;;;9.00;99.90;;;;;;5017153;28;20113;-91
2023/03/30 01:17:35;;;;;;;8.63;2.80;;;9.00;99.90;;;;;;5018844;28;20030;-92
2023/03/30 01:20:32;;;;;;;17.80;2.80;;;8.90;99.90;;;;;;5019059;28;20511;-92
2023/03/30 01:23:09;;;;;;;9.53;2.10;;;8.80;99.90;;;;;;5019740;28;20044;-92
2023/03/30 01:25:49;;;;;;;11.17;2.53;;;8.80;99.90;;;;;;5017560;28;20040;-91
2023/03/30 01:28:24;;;;;;;8.83;2.57;;;8.70;99.90;;;;;;5018664;28;20025;-91
2023/03/30 01:31:24;;;;;;;10.10;2.58;;;8.70;99.90;;;;;;5018870;28;20025;-91
2023/03/30 01:34:24;;;;;;;7.83;2.63;;;8.70;99.90;;;;;;5019918;28;20083;-91
2023/03/30 01:37:27;;;;;;;13.23;2.50;;;8.70;99.90;;;;;;5018637;28;20029;-92
2023/03/30 01:40:08;;;;;;;15.87;3.80;;;8.70;99.90;;;;;;5018118;28;20037;-91
2023/03/30 01:42:44;;;;;;;10.93;2.67;;;8.70;99.90;;;;;;5019177;28;20025;-91
2023/03/30 01:45:19;;;;;;;18.37;3.40;;;8.70;99.90;;;;;;5018991;28;20051;-92
2023/03/30 01:47:45;;;;;;;;;;;8.80;99.90;;;;;;5016481;28;20072;-91
2023/03/30 01:50:20;;;;;;;10.30;3.13;;;8.80;99.90;;;;;;5016227;28;19914;-91
2023/03/30 01:53:07;;;;;;;11.77;2.50;;;8.80;99.90;;;;;;5016195;28;20032;-90
2023/03/30 01:55:43;;;;;;;14.53;2.83;;;8.90;99.90;;;;;;5016494;28;20029;-91
2023/03/30 01:58:15;;;;;;;17.00;3.20;;;8.90;99.90;;;;;;5015908;28;20026;-90
2023/03/30 02:00:47;;;;;;;14.80;2.50;;;8.90;99.90;;;;;;5016906;28;20380;-90
2023/03/30 02:03:17;;;;;;;16.70;2.83;;;9.00;99.90;;;;;;5016310;28;21473;-90
2023/03/30 02:05:46;;;;;;;15.97;3.53;;;9.10;99.90;;;;;;5016402;28;20045;-91
2023/03/30 02:08:18;;;;;;;10.50;2.50;;;9.20;99.90;;;;;;5016306;28;20044;-89
2023/03/30 02:10:46;;;;;;;11.13;2.73;;;9.30;99.90;;;;;;5017491;28;20484;-91
2023/03/30 02:13:14;;;;;;;12.30;2.80;;;9.40;99.90;;;;;;5015167;28;20044;-91
2023/03/30 02:15:44;;;;;;;19.37;4.17;;;9.70;99.90;;;;;;5017043;28;20041;-91
2023/03/30 02:18:10;;;;;;;19.37;2.87;;;10.00;99.90;;;;;;5015310;28;20037;-91
2023/03/30 02:20:37;;;;;;;12.67;2.70;;;10.30;99.90;;;;;;5015693;28;20037;-91
2023/03/30 02:23:04;;;;;;;16.07;3.37;;;10.50;99.90;;;;;;5014956;28;20075;-90
2023/03/30 02:25:31;;;;;;;11.80;2.30;;;10.60;99.90;;;;;;5015637;28;20105;-91
2023/03/30 02:27:56;;;;;;;12.52;2.40;;;10.80;99.90;;;;;;5014010;28;20133;-91
2023/03/30 02:30:22;;;;;;;20.03;3.23;;;10.90;99.90;;;;;;5013669;28;20744;-91
2023/03/30 02:32:52;;;;;;;17.75;4.43;;;11.10;99.90;;;;;;5017873;28;20033;-92
2023/03/30 02:35:28;;;;;;;13.53;2.43;;;11.20;99.90;;;;;;5023295;28;20041;-94
2023/03/30 02:38:15;;;;;;;12.77;2.60;;;11.20;99.90;;;;;;5029832;28;20097;-95
2023/03/30 02:40:43;;;;;;;14.27;3.17;;;11.20;99.90;;;;;;5029424;28;21363;-96
2023/03/30 02:43:23;;;;;;;16.98;3.00;;;11.30;99.90;;;;;;5026185;28;20120;-95
2023/03/30 02:46:08;;;;;;;17.55;3.20;;;11.30;99.90;;;;;;5035276;28;20025;-96
2023/03/30 02:49:03;;;;;;;24.08;4.03;;;11.50;99.90;;;;;;5035647;28;20081;-96
2023/03/30 02:52:21;;;;;;;19.95;4.22;;;11.50;99.90;;;;;;5030793;28;20446;-96
2023/03/30 02:54:56;;;;;;;12.90;3.00;;;11.70;99.90;;;;;;5015326;28;20128;-96
2023/03/30 02:57:31;;;;;;;20.00;3.78;;;11.70;99.90;;;;;;5029351;28;20026;-96
2023/03/30 03:00:11;;;;;;;;;;;11.80;99.90;;;;;;5024634;28;20049;-96
2023/03/30 03:02:45;;;;;;;18.27;3.20;;;11.80;99.90;;;;;;5025524;28;19913;-95
2023/03/30 03:05:13;;;;;;;15.57;2.83;;;11.80;99.90;;;;;;5023577;28;20656;-95
2023/03/30 03:07:40;;;;;;;9.45;2.85;;;11.80;99.90;;;;;;5018875;28;20026;-95
2023/03/30 03:10:06;;;;;;;15.40;3.13;;;11.80;99.90;;;;;;5021932;28;20033;-94
2023/03/30 03:12:32;;;;;;;21.73;4.25;;;11.80;99.90;;;;;;5023546;28;20035;-94
2023/03/30 03:15:00;;;;;;;15.70;3.75;;;11.80;99.90;;;;;;5029584;28;20431;-96
2023/03/30 03:17:33;;;;;;;16.15;3.50;;;11.70;99.90;;;;;;5033180;28;20041;-96
2023/03/30 03:20:00;;;;;;;16.40;3.53;;;11.60;99.90;;;;;;5044199;28;20030;-96
2023/03/30 03:22:25;;;;;;;12.30;2.85;;;11.50;99.90;;;;;;5039491;28;20026;-96
2023/03/30 03:24:51;;;;;;;19.55;3.92;;;11.50;99.90;;;;;;5042017;28;20052;-96
2023/03/30 03:27:16;;;;;;;19.38;3.42;;;11.40;99.90;;;;;;5034854;28;20022;-96
2023/03/30 03:29:42;;;;;;;15.43;3.50;;;11.40;99.90;;;;;;5033387;28;20088;-95
2023/03/30 03:32:07;;;;;;;19.05;3.45;;;11.30;99.90;;;;;;5034921;28;20052;-96
2023/03/30 03:34:33;;;;;;;16.08;3.67;;;11.30;99.90;;;;;;5049824;28;20049;-96
2023/03/30 03:36:58;;;;;;;18.63;4.22;;;11.30;99.90;;;;;;5044577;28;20550;-96
2023/03/30 03:39:24;;;;;;;15.40;3.63;;;11.20;99.90;;;;;;5044589;28;20093;-96
2023/03/30 03:41:50;;;;;;;19.23;4.07;;;11.20;99.90;;;;;;5033736;28;20108;-96
2023/03/30 03:44:15;;;;;;;26.58;3.83;;;11.10;99.90;;;;;;5031508;28;20156;-96
2023/03/30 03:46:41;;;;;;;19.27;3.60;;;11.10;99.90;;;;;;5031219;28;20151;-96
2023/03/30 03:49:06;;;;;;;23.45;4.85;;;11.00;99.90;;;;;;5028298;28;20025;-96
2023/03/30 03:51:32;;;;;;;24.58;4.18;;;11.00;99.90;;;;;;5026493;28;20090;-95
2023/03/30 03:53:58;;;;;;;22.67;4.13;;;10.90;99.90;;;;;;5026120;28;20112;-96
2023/03/30 03:56:24;;;;;;;24.02;4.78;;;10.90;99.90;;;;;;5026288;28;20085;-94
2023/03/30 03:58:50;;;;;;;18.27;3.80;;;10.80;99.90;;;;;;5025079;28;20053;-94
2023/03/30 04:01:16;;;;;;;19.60;5.32;;;10.70;99.90;;;;;;5025843;28;20882;-95
2023/03/30 04:03:41;;;;;;;22.75;5.10;;;10.70;99.90;;;;;;5026250;28;20037;-94
2023/03/30 04:06:08;;;;;;;18.52;4.60;;;10.70;99.90;;;;;;5026769;28;20164;-94
2023/03/30 04:08:36;;;;;;;22.58;5.25;;;10.60;99.90;;;;;;5026301;28;20034;-94
2023/03/30 04:11:06;;;;;;;25.17;4.78;;;10.50;99.90;;;;;;5025545;28;20038;-95
2023/03/30 04:13:33;;;;;;;24.05;5.22;;;10.50;99.90;;;;;;5026462;28;20082;-95
2023/03/30 04:15:59;;;;;;;27.15;5.55;;;10.40;99.90;;;;;;5023659;28;20095;-91
2023/03/30 04:18:30;;;;;;;28.52;4.38;;;10.40;99.90;;;;;;5022732;28;20046;-94
2023/03/30 04:21:06;;;;;;;19.20;4.78;;;10.30;99.90;;;;;;5026012;28;20217;-93
2023/03/30 04:23:33;;;;;;;25.33;4.25;;;10.30;99.90;;;;;;5027319;28;20037;-94
2023/03/30 04:26:03;;;;;;;21.60;4.82;;;10.30;99.90;;;;;;5010123;28;20024;-94
2023/03/30 04:28:31;;;;;;;19.92;5.63;;;10.20;99.90;;;;;;5031398;28;20025;-94
2023/03/30 04:31:02;;;;;;;19.67;4.40;;;10.20;99.90;;;;;;5029968;28;20018;-94
2023/03/30 04:33:29;;;;;;;17.95;6.00;;;10.20;99.90;;;;;;5025107;28;20037;-95
2023/03/30 04:35:58;;;;;;;19.17;4.07;;;10.30;99.90;;;;;;5025602;28;20113;-95
2023/03/30 04:38:23;;;;;;;15.37;4.10;;;10.20;99.90;;;;;;5023686;28;20095;-95
2023/03/30 04:40:52;;;;;;;25.77;5.30;;;10.20;99.90;;;;;;5027479;28;20077;-95
2023/03/30 04:43:21;;;;;;;26.57;4.17;;;10.20;99.90;;;;;;5029652;28;20484;-95
2023/03/30 04:45:51;;;;;;;18.20;3.47;;;10.30;99.90;;;;;;5032388;28;20118;-95
2023/03/30 04:48:18;;;;;;;17.87;4.17;;;10.30;99.90;;;;;;5031194;28;20028;-96
2023/03/30 04:50:45;;;;;;;31.10;5.37;;;10.40;99.90;;;;;;5032924;28;20025;-95
2023/03/30 04:53:13;;;;;;;17.43;4.53;;;10.40;99.90;;;;;;5027784;28;20362;-96
2023/03/30 04:55:39;;;;;;;22.30;4.10;;;10.40;99.90;;;;;;5029367;28;20104;-95
2023/03/30 04:58:05;;;;;;;18.73;5.10;;;10.40;99.90;;;;;;5027851;28;20029;-96
2023/03/30 05:00:31;;;;;;;20.65;4.43;;;10.40;99.90;;;;;;5028970;28;20439;-95
2023/03/30 05:02:57;;;;;;;23.93;4.77;;;10.40;99.90;;;;;;5024342;28;20045;-94
2023/03/30 05:05:22;;;;;;;21.57;4.07;;;10.40;99.90;;;;;;5027070;28;20108;-95
2023/03/30 05:07:48;;;;;;;23.73;5.40;;;10.40;99.90;;;;;;5029997;28;20488;-95
2023/03/30 05:10:16;;;;;;;22.00;3.90;;;10.40;99.90;;;;;;5027200;28;20546;-95
2023/03/30 05:12:41;;;;;;;20.60;4.23;;;10.40;99.90;;;;;;5007704;28;20108;-95
2023/03/30 05:15:07;;;;;;;21.00;4.87;;;10.30;99.90;;;;;;5027704;28;20094;-95
2023/03/30 05:17:33;;;;;;;21.27;4.83;;;10.30;99.90;;;;;;5023745;28;20025;-94
2023/03/30 05:19:59;;;;;;;22.73;4.40;;;10.30;99.90;;;;;;5025754;28;20029;-95
2023/03/30 05:22:27;;;;;;;20.17;5.10;;;10.30;99.90;;;;;;5013751;28;20045;-92
2023/03/30 05:27:59;;;;;;;23.30;4.55;;;10.30;99.90;;;;;;5018979;28;20037;-94
2023/03/30 05:30:27;;;;;;;22.30;4.40;;;10.30;99.90;;;;;;4999895;28;20038;-94
2023/03/30 05:32:57;;;;;;;17.13;5.30;;;10.30;99.90;;;;;;5015398;28;20045;-94
2023/03/30 05:35:28;;;;;;;22.23;4.60;;;10.30;99.90;;;;;;4999142;28;20606;-93
2023/03/30 05:38:09;;;;;;;20.63;4.73;;;10.30;99.90;;;;;;4994536;28;20037;-93
2023/03/30 05:40:37;;;;;;;23.93;5.03;;;10.30;99.90;;;;;;5013391;28;20567;-93
2023/03/30 05:43:10;;;;;;;15.87;4.60;;;10.30;99.90;;;;;;4997522;28;20029;-96
2023/03/30 05:45:38;;;;;;;23.17;4.93;;;10.30;99.90;;;;;;4999394;28;20026;-95
2023/03/30 05:48:06;;;;;;;14.67;4.37;;;10.30;99.90;;;;;;5018374;28;20033;-94
2023/03/30 05:50:38;;;;;;;20.70;4.45;;;10.30;99.90;;;;;;5012379;28;20153;-96
2023/03/30 05:53:07;;;;;;;23.47;5.13;;;10.30;99.90;;;;;;5018926;28;20085;-96
2023/03/30 05:58:39;;;;;;;;;;;10.40;99.90;;;;;;4992844;28;20052;-91
2023/03/30 06:01:08;;;;;;;25.70;5.13;;;10.40;99.90;;;;;;4996883;28;19914;-91
2023/03/30 06:03:39;;;;;;;28.73;4.93;;;10.40;99.90;;;;;;5000451;28;20018;-91
2023/03/30 06:06:08;;;;;;;22.67;4.70;;;10.40;99.90;;;;;;4995846;28;20036;-92
2023/03/30 06:08:37;;;;;;;24.65;5.93;;;10.40;99.90;;;;;;5014486;28;20068;-91
2023/03/30 06:11:08;;;;;;;24.23;4.82;;;10.40;99.90;;;;;;4990210;28;20048;-91
2023/03/30 06:13:47;;;;;;;19.10;4.50;;;10.50;99.90;;;;;;5012900;28;20079;-92
2023/03/30 06:16:18;;;;;;;20.23;4.90;;;10.50;99.90;;;;;;5011722;28;20052;-88
2023/03/30 06:18:49;;;;;;;17.08;4.18;;;10.50;99.90;;;;;;5012647;28;20029;-90
2023/03/30 06:21:17;;;;;;;19.58;4.60;;;10.60;99.90;;;;;;5012488;28;20048;-90
2023/03/30 06:23:50;;;;;;;15.48;4.90;;;10.60;99.90;;;;;;4991623;28;20025;-89
2023/03/30 06:26:17;;;;;;;29.17;5.32;;;10.70;99.90;;;;;;5013367;28;20042;-88
2023/03/30 06:28:47;;;;;;;18.77;5.13;;;10.70;99.90;;;;;;5011486;28;20147;-89
2023/03/30 06:31:32;;;;;;;21.27;4.50;;;10.70;99.90;;;;;;5013849;28;20110;-89
2023/03/30 06:33:58;;;;;;;20.02;4.78;;;10.70;99.90;;;;;;5010840;28;20032;-89
2023/03/30 06:36:26;;;;;;;19.40;5.05;;;10.70;99.90;;;;;;4988682;28;20041;-89
2023/03/30 06:38:57;;;;;;;24.37;4.57;;;10.80;99.90;;;;;;5013025;28;20481;-89
2023/03/30 06:41:30;;;;;;;24.60;5.27;;;10.80;99.90;;;;;;5010310;28;20018;-89
2023/03/30 06:43:58;;;;;;;24.50;5.13;;;10.90;99.90;;;;;;5012347;28;20064;-90
2023/03/30 06:46:32;;;;;;;16.00;4.50;;;10.90;99.90;;;;;;5009434;28;20423;-90
2023/03/30 06:48:58;;;;;;;24.30;4.70;;;10.90;99.90;;;;;;4989324;28;20030;-89
2023/03/30 06:51:28;;;;;;;14.30;3.67;;;10.90;99.90;;;;;;5009797;28;20716;-90
2023/03/30 06:54:01;;;;;;;17.38;4.05;;;11.00;99.90;;;;;;5001412;28;20092;-90
2023/03/30 06:56:29;;;;;;;21.53;4.33;;;11.00;99.90;;;;;;5003016;28;20657;-91
2023/03/30 06:58:57;;;;;;;14.50;5.00;;;11.00;99.90;;;;;;4984246;28;20180;-90
2023/03/30 07:01:31;;;;;;;14.20;3.90;;;11.00;99.90;;;;;;5010646;28;20677;-91
2023/03/30 07:03:59;;;;;;;16.17;4.80;;;11.00;99.90;;;;;;5011818;28;20033;-90
2023/03/30 07:06:27;;;;;;;21.02;3.33;;;11.00;99.90;;;;;;5011101;28;20047;-90
2023/03/30 07:09:00;;;;;;;16.45;4.07;;;11.10;99.90;;;;;;5010531;28;20528;-89
2023/03/30 07:11:28;;;;;;;12.40;3.25;;;11.10;99.90;;;;;;5011116;28;20049;-89
2023/03/30 07:14:00;;;;;;;14.85;4.00;;;11.20;99.90;;;;;;5011633;28;20041;-89
2023/03/30 07:16:28;;;;;;;14.13;3.28;;;11.20;99.90;;;;;;5013203;28;20032;-89
2023/03/30 07:18:58;;;;;;;15.93;3.90;;;11.30;99.90;;;;;;5015903;28;20069;-89
2023/03/30 07:21:27;;;;;;;16.75;3.80;;;11.30;99.90;;;;;;5017015;28;20029;-89
2023/03/30 07:24:00;;;;;;;17.23;3.45;;;11.40;99.90;;;;;;4996107;28;20123;-89
2023/03/30 07:26:28;;;;;;;12.45;3.45;;;11.60;99.90;;;;;;5014171;28;20022;-89
2023/03/30 07:29:10;;;;;;;22.90;4.05;;;11.60;99.90;;;;;;4995951;28;20491;-89
2023/03/30 07:31:38;;;;;;;22.08;4.22;;;11.70;99.90;;;;;;5015097;28;20156;-89
2023/03/30 07:34:08;;;;;;;16.35;3.80;;;11.80;99.90;;;;;;5015903;28;20030;-88
2023/03/30 07:36:38;;;;;;;14.27;3.80;;;11.80;99.90;;;;;;4995204;28;20665;-89
2023/03/30 07:39:09;;;;;;;23.08;4.63;;;11.80;99.90;;;;;;4995170;28;20057;-88
2023/03/30 07:41:37;;;;;;;16.63;3.92;;;11.80;99.90;;;;;;4994506;28;20495;-89
2023/03/30 07:44:11;;;;;;;17.33;3.97;;;11.70;99.90;;;;;;5013220;28;20037;-87
2023/03/30 07:46:40;;;;;;;24.48;4.22;;;11.70;99.90;;;;;;4995975;28;20057;-88
2023/03/30 07:49:07;;;;;;;15.82;3.83;;;11.80;99.90;;;;;;4997847;28;20042;-88
2023/03/30 07:51:40;;;;;;;15.50;4.68;;;11.70;99.90;;;;;;5012725;28;20032;-89
2023/03/30 07:54:09;;;;;;;14.88;3.40;;;11.70;99.90;;;;;;4995930;28;20089;-89
2023/03/30 07:57:00;;;;;;;18.95;3.45;;;11.70;99.90;;;;;;5014072;28;20079;-88
2023/03/30 07:59:27;;;;;;;15.55;3.75;;;11.70;99.90;;;;;;5015584;28;20125;-89
2023/03/30 08:02:19;;;;;;;18.48;3.42;;;11.70;99.90;;;;;;5015023;28;20521;-88
2023/03/30 08:04:47;;;;;;;12.77;3.42;;;11.80;99.90;;;;;;5014324;28;20036;-88
2023/03/30 08:07:19;;;;;;;19.73;3.72;;;11.80;99.90;;;;;;5013615;28;20241;-89
2023/03/30 08:09:48;;;;;;;14.90;3.45;;;11.80;99.90;;;;;;4997110;28;20032;-89
2023/03/30 08:13:01;;;;;;;16.77;3.67;;;11.90;99.90;;;;;;4996762;28;20048;-89
2023/03/30 08:15:29;;;;;;;18.38;5.03;;;11.90;99.90;;;;;;5010279;28;20400;-90
2023/03/30 08:18:02;;;;;;;20.70;3.75;;;11.90;99.90;;;;;;5014869;28;20033;-89
2023/03/30 08:20:28;;;;;;;15.23;2.80;;;12.00;99.90;;;;;;4996341;28;20085;-89
2023/03/30 08:22:59;;;;;;;17.63;4.07;;;12.10;99.90;;;;;;5013960;28;20026;-90
2023/03/30 08:25:39;;;;;;;17.50;3.88;;;12.20;99.90;;;;;;4997128;28;20056;-89
2023/03/30 08:28:07;;;;;;;15.73;3.75;;;12.30;99.90;;;;;;5013449;28;20072;-90
2023/03/30 08:30:41;;;;;;;13.45;2.78;;;12.30;99.90;;;;;;5015651;28;20055;-89
2023/03/30 08:33:09;;;;;;;26.00;9.75;;;12.40;99.90;;;;;;5014345;28;20021;-90
2023/03/30 08:35:38;;;;;;;15.68;5.72;;;12.50;99.90;;;;;;5016832;28;20032;-90
2023/03/30 08:38:16;;;;;;;15.82;3.22;;;12.50;99.90;;;;;;5013574;28;21002;-90
2023/03/30 08:40:51;;;;;;;14.88;3.42;;;12.60;99.90;;;;;;5015730;28;20499;-90
2023/03/30 08:43:20;;;;;;;15.13;2.95;;;12.50;99.90;;;;;;4995069;28;20052;-91
2023/03/30 08:45:50;;;;;;;13.02;4.15;;;12.50;99.90;;;;;;4996647;28;20024;-91
2023/03/30 08:48:21;;;;;;;20.13;3.20;;;12.60;99.90;;;;;;4995491;28;20044;-90
2023/03/30 08:51:00;;;;;;;13.57;2.85;;;12.60;99.90;;;;;;5017315;28;20024;-91
2023/03/30 08:53:31;;;;;;;22.75;4.22;;;12.60;99.90;;;;;;4995827;28;20021;-91
2023/03/30 08:56:50;;;;;;;15.82;3.38;;;12.60;99.90;;;;;;5015231;28;20030;-91
2023/03/30 08:59:57;;;;;;;10.45;2.92;;;12.70;99.90;;;;;;5008189;28;20480;-91
2023/03/30 09:02:59;;;;;;;114.65;49.10;;;12.70;99.90;;;;;;5014337;28;20108;-90
2023/03/30 09:05:31;;;;;;;12.98;3.80;;;12.80;99.90;;;;;;5015506;28;20056;-90
2023/03/30 09:08:19;;;;;;;8.82;2.50;;;13.00;99.90;;;;;;4994606;28;20029;-91
2023/03/30 09:11:00;;;;;;;8.73;2.58;;;13.20;99.90;;;;;;5012349;28;21048;-90
2023/03/30 09:13:49;;;;;;;15.60;2.78;;;13.40;99.90;;;;;;5011268;28;20069;-90
2023/03/30 09:16:39;;;;;;;13.48;3.28;;;13.60;99.90;;;;;;4980088;28;20065;-87
2023/03/30 09:22:20;;;;;;;11.60;3.13;;;13.90;99.90;;;;;;5005520;28;20029;-88
2023/03/30 09:24:50;;;;;;;11.50;2.50;;;14.10;99.90;;;;;;4990088;28;20025;-87
2023/03/30 09:27:27;;;;;;;12.25;2.85;;;14.20;99.90;;;;;;4996171;28;20033;-87
2023/03/30 09:30:20;;;;;;;13.10;2.65;;;14.30;99.90;;;;;;5012825;28;21586;-87
2023/03/30 09:33:01;;;;;;;12.68;2.55;;;14.50;99.90;;;;;;4994661;28;20068;-87
2023/03/30 09:35:59;;;;;;;8.38;2.63;;;14.70;99.90;;;;;;5013887;28;20522;-87
2023/03/30 09:38:41;;;;;;;9.77;2.55;;;14.90;99.90;;;;;;4996872;28;20060;-87
2023/03/30 09:41:39;;;;;;;10.93;2.70;;;15.10;99.90;;;;;;5012682;28;20053;-87
2023/03/30 09:44:38;;;;;;;10.45;2.58;;;15.30;99.90;;;;;;4993611;28;20111;-87
2023/03/30 09:47:50;;;;;;;11.82;2.72;;;15.30;99.90;;;;;;4998744;28;20060;-86
2023/03/30 09:50:39;;;;;;;14.52;3.05;;;15.40;99.90;;;;;;4904386;29;20567;-87
2023/03/30 09:53:30;;;;;;;13.02;3.03;;;15.60;99.90;;;;;;4917692;28;20629;-85
2023/03/30 09:56:17;;;;;;;14.35;3.38;;;15.70;99.90;;;;;;5004588;28;20033;-85
2023/03/30 09:58:59;;;;;;;17.85;3.05;;;15.70;99.90;;;;;;4996447;28;20065;-86
2023/03/30 10:01:38;;;;;;;16.63;2.70;;;15.70;99.90;;;;;;5011525;28;20453;-85
2023/03/30 10:04:10;;;;;;;17.08;3.22;;;15.60;99.90;;;;;;5011377;28;20679;-85
2023/03/30 10:06:48;;;;;;;13.27;2.95;;;15.70;99.90;;;;;;4989679;28;20025;-85
2023/03/30 10:09:29;;;;;;;19.08;3.50;;;15.90;99.90;;;;;;4993759;28;20029;-85
2023/03/30 10:11:58;;;;;;;22.52;3.20;;;16.00;99.90;;;;;;5012141;28;20026;-85
2023/03/30 10:15:03;;;;;;;15.00;3.63;;;16.10;99.90;;;;;;4985944;28;20169;-85
2023/03/30 10:17:28;;;;;;;16.05;2.90;;;16.30;99.90;;;;;;4964722;28;20045;-84
2023/03/30 10:20:38;;;;;;;17.25;3.38;;;16.50;99.90;;;;;;4992006;28;21310;-85
2023/03/30 10:23:53;;;;;;;14.65;2.65;;;16.50;99.90;;;;;;4989949;28;20021;-85
2023/03/30 10:26:19;;;;;;;15.30;3.47;;;16.60;99.90;;;;;;4958087;28;20034;-85
2023/03/30 10:29:12;;;;;;;16.58;3.50;;;16.70;99.90;;;;;;4977262;28;20758;-85
2023/03/30 10:31:49;;;;;;;14.18;2.63;;;16.70;99.90;;;;;;4988185;28;20072;-85
2023/03/30 10:34:48;;;;;;;18.15;3.65;;;16.50;99.90;;;;;;4991485;28;20487;-85
2023/03/30 10:37:41;;;;;;;12.20;3.10;;;16.30;99.90;;;;;;4985004;28;20053;-84
2023/03/30 10:40:19;;;;;;;8.98;2.53;;;16.10;99.90;;;;;;4964646;28;20863;-86
2023/03/30 10:42:54;;;;;;;16.30;3.50;;;15.80;99.90;;;;;;4990033;28;20045;-87
2023/03/30 10:45:29;;;;;;;22.25;3.10;;;15.60;99.90;;;;;;4992333;28;20064;-85
2023/03/30 10:48:31;;;;;;;19.15;3.65;;;15.50;99.90;;;;;;4991392;28;20030;-84
2023/03/30 10:51:30;;;;;;;18.13;3.40;;;15.40;99.90;;;;;;4993098;28;21008;-83
2023/03/30 10:54:30;;;;;;;13.65;3.17;;;15.30;99.90;;;;;;4955158;28;20125;-85
2023/03/30 10:57:20;;;;;;;16.40;3.80;;;15.20;99.90;;;;;;4990557;28;20026;-85
2023/03/30 11:00:10;;;;;;;15.60;3.88;;;15.10;99.90;;;;;;4971784;28;20040;-84
2023/03/30 11:02:48;;;;;;;15.70;3.20;;;15.00;99.90;;;;;;4990975;28;20116;-84
2023/03/30 11:05:54;;;;;;;18.63;3.70;;;14.90;99.90;;;;;;4991793;28;20104;-84
2023/03/30 11:08:30;;;;;;;;;;;14.80;99.90;;;;;;4889442;29;20494;-84
2023/03/30 11:11:00;;;;;;;16.15;3.17;;;14.70;99.90;;;;;;4971375;28;19921;-85
2023/03/30 11:13:48;;;;;;;12.35;3.25;;;14.60;99.90;;;;;;4990466;28;20037;-83
2023/03/30 11:16:50;;;;;;;20.58;4.03;;;14.50;99.90;;;;;;4987122;28;20808;-84
2023/03/30 11:19:41;;;;;;;19.92;3.95;;;14.40;99.90;;;;;;4987758;28;20050;-84
2023/03/30 11:22:27;;;;;;;14.23;3.80;;;14.20;99.90;;;;;;4992056;28;20031;-84
2023/03/30 11:24:59;;;;;;;11.57;2.75;;;14.10;99.90;;;;;;4984836;28;20067;-84
2023/03/30 11:27:38;;;;;;;11.15;2.97;;;13.90;99.90;;;;;;4973628;28;20409;-85
2023/03/30 11:30:18;;;;;;;9.43;3.28;;;13.70;99.90;;;;;;4974857;28;20029;-83
2023/03/30 11:33:18;;;;;;;9.35;2.75;;;13.60;99.90;;;;;;4967538;28;20026;-83
2023/03/30 11:36:09;;;;;;;9.15;2.80;;;13.40;99.90;;;;;;4985399;28;20065;-84
2023/03/30 11:38:57;;;;;;;11.55;3.53;;;13.20;99.90;;;;;;4987756;28;20041;-84
2023/03/30 11:41:40;;;;;;;13.07;4.20;;;13.10;99.90;;;;;;4980605;28;20014;-85
2023/03/30 11:44:10;;;;;;;14.15;4.32;;;12.90;99.90;;;;;;4979765;28;20031;-84
2023/03/30 11:47:00;;;;;;;12.63;3.80;;;12.80;99.90;;;;;;4974175;28;20029;-87
2023/03/30 11:49:37;;;;;;;13.57;3.13;;;12.70;99.90;;;;;;4990264;28;20030;-88
2023/03/30 11:52:32;;;;;;;8.38;3.60;;;12.50;99.90;;;;;;4991515;28;20029;-86
2023/03/30 11:55:42;;;;;;;15.77;3.22;;;12.30;99.90;;;;;;4983729;28;20034;-86
2023/03/30 11:58:28;;;;;;;13.15;3.55;;;12.10;99.90;;;;;;4984154;28;20052;-85
2023/03/30 12:01:09;;;;;;;9.10;3.88;;;12.00;99.90;;;;;;4973787;28;20026;-85
2023/03/30 12:03:48;;;;;;;9.75;3.08;;;11.90;99.90;;;;;;4993569;28;20128;-86
2023/03/30 12:06:40;;;;;;;9.80;3.45;;;11.80;99.90;;;;;;4974439;28;20018;-87
2023/03/30 12:09:41;;;;;;;15.65;3.55;;;11.60;99.90;;;;;;4992226;28;20057;-87
2023/03/30 12:15:31;;;;;;;12.27;3.27;;;11.40;99.90;;;;;;4993850;28;20051;-77
2023/03/30 12:18:14;;;;;;;15.20;3.63;;;11.20;99.90;;;;;;5012863;28;20034;-77
2023/03/30 12:20:45;;;;;;;12.83;3.80;;;11.10;99.90;;;;;;5012967;28;20033;-76
2023/03/30 12:23:18;;;;;;;13.20;3.70;;;11.00;99.90;;;;;;5010927;28;20032;-76
2023/03/30 12:26:16;;;;;;;9.00;3.30;;;10.90;99.90;;;;;;5011876;28;20068;-76
2023/03/30 12:28:45;;;;;;;13.50;4.77;;;10.90;99.90;;;;;;5011947;28;20461;-76
2023/03/30 12:31:11;;;;;;;10.00;3.10;;;10.80;99.90;;;;;;5013041;28;20033;-77
2023/03/30 12:33:48;;;;;;;10.07;3.17;;;10.80;99.90;;;;;;5011678;28;20029;-76
2023/03/30 12:36:21;;;;;;;9.20;3.73;;;10.90;99.90;;;;;;5013526;28;20045;-76
2023/03/30 12:42:28;;;;;;;8.77;2.90;;;10.90;99.90;;;;;;5086692;23;21272;-94
2023/03/30 12:45:22;;;;;;;9.00;3.00;;;10.90;99.90;;;;;;4995317;28;20045;-83
2023/03/30 12:48:01;;;;;;;5.97;2.73;;;11.00;99.90;;;;;;5011657;28;20021;-81
2023/03/30 12:50:30;;;;;;;7.77;3.20;;;11.00;99.90;;;;;;5013957;28;20052;-88
2023/03/30 12:53:27;;;;;;;4.43;2.63;;;11.00;99.90;;;;;;4994281;28;20030;-83
2023/03/30 12:56:19;;;;;;;6.68;2.55;;;11.10;99.90;;;;;;5011421;28;20033;-83
2023/03/30 12:59:20;;;;;;;6.47;2.60;;;11.10;99.90;;;;;;5010098;28;20152;-83
2023/03/30 13:02:29;;;;;;;6.18;2.47;;;11.00;99.90;;;;;;5009382;28;20041;-83
2023/03/30 13:04:57;;;;;;;7.17;2.70;;;11.00;99.90;;;;;;5009438;28;20104;-83
2023/03/30 13:07:41;;;;;;;4.20;1.97;;;11.00;99.90;;;;;;5010975;28;20037;-82
2023/03/30 13:10:29;;;;;;;4.53;2.00;;;11.00;99.90;;;;;;5008531;28;20033;-82
2023/03/30 13:13:00;;;;;;;7.30;2.83;;;11.00;99.90;;;;;;5010288;28;21124;-83
2023/03/30 13:15:28;;;;;;;6.07;2.60;;;11.00;99.90;;;;;;5013120;28;20041;-83
2023/03/30 13:17:59;;;;;;;4.77;2.23;;;10.90;99.90;;;;;;5013476;28;20092;-83
2023/03/30 13:20:47;;;;;;;5.85;2.53;;;10.90;99.90;;;;;;5016374;28;20387;-83
2023/03/30 13:23:22;;;;;;;7.40;2.40;;;10.90;99.90;;;;;;5003831;28;20590;-83
2023/03/30 13:25:59;;;;;;;7.80;2.80;;;10.80;99.90;;;;;;5014292;28;20057;-83
2023/03/30 13:28:58;;;;;;;6.10;2.07;;;10.80;99.90;;;;;;5013440;28;21394;-83
2023/03/30 13:31:29;;;;;;;6.87;2.10;;;10.80;99.90;;;;;;4993863;28;20041;-83
2023/03/30 13:34:18;;;;;;;7.07;2.20;;;10.80;99.90;;;;;;5014689;28;20026;-83
2023/03/30 13:37:11;;;;;;;5.70;2.20;;;10.80;99.90;;;;;;4968117;28;20065;-83
2023/03/30 13:39:52;;;;;;;5.17;1.90;;;10.90;99.90;;;;;;5011161;28;20192;-84